Time;durP1;ratioP1;P1;durP2;ratioP2;P2;SDS_P1;SDS_P2;PMS_P1;PMS_P2;Temp;Humidity;BMP_temperature;BMP_pressure;BME280_temperature;BME280_humidity;BME280_pressure;Samples;Min_cycle;Max_cycle;Signal;HPM_P1;HPM_P2
2022/08/08 04:07:22;;;;;;;1.80;1.70;;;13.70;99.90;;;;;;4956873;29;20308;-69
2022/08/08 04:09:57;;;;;;;1.63;1.53;;;13.70;99.90;;;;;;4958544;29;20407;-69
2022/08/08 04:12:22;;;;;;;1.83;1.73;;;13.70;99.90;;;;;;4958377;29;20428;-68
2022/08/08 04:14:48;;;;;;;1.73;1.63;;;13.70;99.90;;;;;;4958512;28;20413;-69
2022/08/08 04:17:13;;;;;;;1.70;1.60;;;13.70;99.90;;;;;;4958694;28;20181;-69
2022/08/08 04:19:39;;;;;;;2.43;2.23;;;13.70;99.90;;;;;;4958722;28;20178;-68
2022/08/08 04:22:05;;;;;;;1.50;1.40;;;13.70;99.90;;;;;;4958341;28;20178;-68
2022/08/08 04:24:30;;;;;;;1.60;1.60;;;13.70;99.90;;;;;;4957976;28;20206;-69
2022/08/08 04:26:57;;;;;;;1.90;1.80;;;13.70;99.90;;;;;;4958497;28;20237;-67
2022/08/08 04:29:22;;;;;;;1.93;1.83;;;13.70;99.90;;;;;;4958355;28;20592;-68
2022/08/08 04:31:48;;;;;;;2.07;1.90;;;13.70;99.90;;;;;;4958343;28;20493;-68
2022/08/08 04:34:14;;;;;;;1.83;1.73;;;13.80;99.90;;;;;;4956745;28;20278;-68
2022/08/08 04:36:39;;;;;;;1.70;1.60;;;13.80;99.90;;;;;;4958267;28;20173;-68
2022/08/08 04:39:05;;;;;;;2.50;2.10;;;13.80;99.90;;;;;;4958221;28;20637;-68
2022/08/08 04:41:30;;;;;;;1.20;1.20;;;13.90;99.90;;;;;;4958217;28;20197;-68
2022/08/08 04:43:56;;;;;;;1.80;1.70;;;14.10;99.90;;;;;;4957970;28;20201;-68
2022/08/08 04:46:22;;;;;;;2.23;1.90;;;14.20;99.90;;;;;;4957969;28;20191;-68
2022/08/08 04:48:47;;;;;;;2.30;2.10;;;14.50;99.90;;;;;;4961324;28;20231;-68
2022/08/08 04:51:13;;;;;;;2.00;1.90;;;14.70;99.90;;;;;;4961601;28;20182;-67
2022/08/08 04:53:38;;;;;;;1.90;1.80;;;14.90;99.90;;;;;;4959241;28;20201;-68
2022/08/08 04:56:04;;;;;;;2.10;2.00;;;15.10;99.90;;;;;;4958186;28;20199;-68
2022/08/08 04:58:30;;;;;;;2.07;1.97;;;15.30;99.90;;;;;;4958035;28;20188;-68
2022/08/08 05:00:56;;;;;;;2.03;1.93;;;15.60;99.90;;;;;;4957950;28;20188;-68
2022/08/08 05:03:21;;;;;;;2.80;2.00;;;16.00;99.50;;;;;;4957353;28;20279;-68
2022/08/08 05:05:47;;;;;;;2.53;2.40;;;16.30;98.80;;;;;;4957530;28;20193;-69
2022/08/08 05:08:12;;;;;;;2.20;2.00;;;16.60;97.90;;;;;;4957551;28;20251;-68
2022/08/08 05:10:38;;;;;;;3.10;2.77;;;16.70;96.90;;;;;;4957672;28;20200;-67
2022/08/08 05:13:04;;;;;;;2.03;1.93;;;16.80;96.70;;;;;;4957339;28;20181;-67
2022/08/08 05:15:29;;;;;;;2.50;2.37;;;16.70;96.50;;;;;;4957327;28;20224;-69
2022/08/08 05:17:55;;;;;;;5.40;2.17;;;16.70;96.50;;;;;;4957688;28;20782;-69
2022/08/08 05:20:21;;;;;;;2.13;2.03;;;16.90;96.00;;;;;;4957368;28;20173;-69
2022/08/08 05:22:49;;;;;;;2.20;2.00;;;17.00;95.60;;;;;;4956649;28;20192;-69
2022/08/08 05:25:15;;;;;;;1.83;1.73;;;17.00;95.50;;;;;;4956843;29;20576;-68
2022/08/08 05:27:41;;;;;;;2.60;2.03;;;17.00;95.40;;;;;;4957517;29;20458;-69
2022/08/08 05:30:09;;;;;;;3.67;2.50;;;17.00;95.30;;;;;;4956940;29;20486;-70
2022/08/08 05:32:37;;;;;;;2.50;2.20;;;17.10;95.00;;;;;;4956873;29;20555;-68
2022/08/08 05:35:03;;;;;;;1.93;1.83;;;17.10;95.10;;;;;;4956964;29;20437;-68
2022/08/08 05:37:31;;;;;;;3.13;2.83;;;17.10;95.40;;;;;;4956710;29;20416;-68
2022/08/08 05:40:00;;;;;;;2.77;2.13;;;17.20;95.40;;;;;;4939290;28;20433;-68
2022/08/08 05:42:40;;;;;;;2.63;2.43;;;17.20;95.60;;;;;;4937338;29;20410;-66
2022/08/08 05:45:07;;;;;;;1.90;1.80;;;17.20;95.60;;;;;;4939892;28;20437;-68
2022/08/08 05:47:36;;;;;;;2.00;1.83;;;17.30;95.40;;;;;;4938770;29;20495;-68
2022/08/08 05:50:05;;;;;;;2.50;2.23;;;17.30;95.50;;;;;;4956742;29;20456;-67
2022/08/08 05:52:34;;;;;;;2.60;2.40;;;17.40;95.30;;;;;;4956666;28;20408;-67
2022/08/08 05:55:09;;;;;;;2.20;2.00;;;17.40;95.50;;;;;;4956786;29;20427;-67
2022/08/08 05:57:37;;;;;;;4.93;2.47;;;17.50;95.30;;;;;;4956571;29;20456;-67
2022/08/08 06:00:09;;;;;;;2.63;2.43;;;17.50;95.80;;;;;;4955999;29;20465;-68
2022/08/08 06:05:21;;;;;;;2.77;2.53;;;17.80;95.00;;;;;;4956607;29;20459;-67
2022/08/08 06:07:48;;;;;;;2.20;2.03;;;17.90;95.30;;;;;;4955892;29;20474;-68
2022/08/08 06:10:15;;;;;;;3.60;2.10;;;18.00;94.30;;;;;;4956230;29;20427;-68
2022/08/08 06:12:42;;;;;;;2.50;2.13;;;18.00;94.00;;;;;;4956322;28;20464;-68
2022/08/08 06:15:10;;;;;;;2.33;2.23;;;18.10;94.00;;;;;;4955378;29;20970;-68
2022/08/08 06:17:38;;;;;;;3.67;2.57;;;18.10;93.90;;;;;;4955664;28;20440;-68
2022/08/08 06:20:14;;;;;;;2.90;2.60;;;18.30;93.70;;;;;;4956194;29;20436;-68
2022/08/08 06:22:40;;;;;;;2.50;2.30;;;18.60;93.60;;;;;;4956184;29;20455;-68
2022/08/08 06:25:07;;;;;;;2.43;2.33;;;19.00;92.60;;;;;;4955687;29;20859;-68
2022/08/08 06:27:43;;;;;;;2.60;2.40;;;19.10;92.10;;;;;;4955341;28;20211;-67
2022/08/08 06:30:10;;;;;;;5.33;2.60;;;19.20;91.80;;;;;;4955585;28;20491;-67
2022/08/08 06:32:57;;;;;;;4.13;1.97;;;19.20;91.80;;;;;;4955091;29;20417;-67
2022/08/08 06:35:24;;;;;;;2.47;2.20;;;19.30;91.60;;;;;;4954798;29;20858;-67
2022/08/08 06:37:52;;;;;;;2.60;2.40;;;19.30;91.70;;;;;;4955507;29;20439;-64
2022/08/08 06:40:19;;;;;;;2.83;2.43;;;19.20;92.10;;;;;;4944475;28;20447;-65
2022/08/08 06:42:54;;;;;;;2.90;2.60;;;19.20;91.90;;;;;;4951492;29;20485;-64
2022/08/08 06:45:22;;;;;;;2.40;2.27;;;19.40;91.60;;;;;;4958841;28;20450;-63
2022/08/08 06:47:48;;;;;;;3.20;2.90;;;19.40;91.60;;;;;;4955629;28;20966;-63
2022/08/08 06:50:14;;;;;;;3.50;2.30;;;19.50;91.70;;;;;;4955678;28;20506;-62
2022/08/08 06:52:41;;;;;;;2.83;2.63;;;19.50;91.50;;;;;;4955340;28;20420;-62
2022/08/08 06:55:07;;;;;;;2.30;2.20;;;19.70;91.40;;;;;;4954907;28;20444;-63
2022/08/08 06:57:33;;;;;;;2.40;2.20;;;19.90;91.20;;;;;;4954988;28;20511;-63
2022/08/08 07:00:00;;;;;;;2.43;1.87;;;20.10;91.10;;;;;;4954919;29;20810;-65
2022/08/08 07:02:30;;;;;;;2.27;1.90;;;20.20;90.70;;;;;;4957136;28;20473;-65
2022/08/08 07:05:04;;;;;;;3.43;2.47;;;20.30;90.50;;;;;;4954525;28;20428;-64
2022/08/08 07:07:42;;;;;;;2.23;2.13;;;20.40;90.20;;;;;;4955269;29;20466;-65
2022/08/08 07:10:09;;;;;;;2.57;2.47;;;20.50;90.50;;;;;;4954935;29;20456;-66
2022/08/08 07:12:43;;;;;;;2.37;2.27;;;20.50;90.40;;;;;;4954196;29;20892;-63
2022/08/08 07:15:14;;;;;;;2.07;1.97;;;20.50;90.40;;;;;;4954862;28;20432;-66
2022/08/08 07:17:48;;;;;;;8.00;3.07;;;20.60;90.50;;;;;;4954825;28;20436;-65
2022/08/08 07:20:25;;;;;;;3.63;2.70;;;20.70;90.40;;;;;;4938011;29;20436;-65
2022/08/08 07:23:26;;;;;;;2.47;2.37;;;20.80;90.00;;;;;;4954890;28;20814;-65
2022/08/08 07:25:54;;;;;;;8.53;2.80;;;20.90;90.10;;;;;;4955069;29;20439;-65
2022/08/08 07:28:22;;;;;;;2.40;2.30;;;21.00;90.40;;;;;;4955175;28;20433;-66
2022/08/08 07:30:48;;;;;;;2.27;2.17;;;21.10;90.00;;;;;;4954173;29;20435;-66
2022/08/08 07:33:15;;;;;;;3.03;2.73;;;21.30;90.00;;;;;;4935444;29;20426;-67
2022/08/08 07:35:41;;;;;;;4.33;3.93;;;21.50;89.30;;;;;;4941315;29;20887;-67
2022/08/08 07:38:09;;;;;;;6.60;3.10;;;21.50;89.00;;;;;;4954239;28;20421;-67
2022/08/08 07:40:35;;;;;;;3.83;2.90;;;21.70;89.00;;;;;;4953074;28;20515;-66
2022/08/08 07:43:04;;;;;;;2.03;1.93;;;22.00;88.90;;;;;;4958439;29;20419;-66
2022/08/08 07:45:30;;;;;;;2.27;2.17;;;22.30;88.10;;;;;;4958323;28;20433;-67
2022/08/08 07:47:57;;;;;;;2.90;2.60;;;22.90;87.50;;;;;;4957585;29;20463;-68
2022/08/08 07:50:24;;;;;;;3.07;2.77;;;23.70;85.60;;;;;;4958283;28;20179;-67
2022/08/08 07:52:55;;;;;;;2.80;2.60;;;24.80;83.30;;;;;;4957539;29;20751;-67
2022/08/08 07:55:23;;;;;;;2.87;2.67;;;25.90;78.80;;;;;;4957890;28;21211;-67
2022/08/08 07:58:21;;;;;;;2.77;2.57;;;27.20;75.80;;;;;;4958827;28;20844;-68
2022/08/08 08:01:04;;;;;;;2.73;2.13;;;28.80;69.90;;;;;;4945332;29;20511;-67
2022/08/08 08:03:41;;;;;;;2.80;2.60;;;30.30;65.10;;;;;;4957999;29;20422;-67
2022/08/08 08:06:10;;;;;;;2.70;2.50;;;31.70;62.00;;;;;;4957482;28;20931;-67
2022/08/08 08:09:02;;;;;;;2.67;2.50;;;32.90;57.70;;;;;;4957105;29;20420;-68
2022/08/08 08:11:33;;;;;;;3.00;2.80;;;33.70;55.90;;;;;;4930816;29;20432;-68
2022/08/08 08:14:04;;;;;;;3.00;2.80;;;34.80;54.00;;;;;;4958148;28;20492;-67
2022/08/08 08:16:34;;;;;;;2.57;2.40;;;35.40;52.40;;;;;;4958460;28;20731;-67
2022/08/08 08:19:02;;;;;;;3.33;3.03;;;36.10;51.00;;;;;;4958687;28;20411;-68
2022/08/08 08:21:38;;;;;;;2.90;2.70;;;36.30;50.10;;;;;;4957678;29;20870;-68
2022/08/08 08:24:04;;;;;;;2.73;2.63;;;36.50;49.50;;;;;;4958055;29;20806;-68
2022/08/08 08:26:30;;;;;;;3.20;3.00;;;36.80;49.30;;;;;;4957477;29;20554;-68
2022/08/08 08:28:55;;;;;;;3.03;2.83;;;36.90;48.10;;;;;;4958212;29;20927;-68
2022/08/08 08:31:21;;;;;;;2.70;2.50;;;36.80;48.50;;;;;;4957842;29;20324;-67
2022/08/08 08:33:47;;;;;;;2.80;2.70;;;36.90;48.00;;;;;;4957792;28;20252;-68
2022/08/08 08:36:13;;;;;;;2.43;2.33;;;37.20;47.80;;;;;;4957622;29;20684;-67
2022/08/08 08:38:39;;;;;;;2.50;2.40;;;37.30;46.90;;;;;;4958071;29;20251;-66
2022/08/08 08:41:07;;;;;;;2.40;2.30;;;37.20;46.80;;;;;;4957404;29;20435;-67
2022/08/08 08:43:34;;;;;;;2.80;2.70;;;37.20;46.50;;;;;;4956726;28;20448;-68
2022/08/08 08:46:00;;;;;;;2.60;2.50;;;37.30;46.20;;;;;;4948241;28;20551;-68
2022/08/08 08:48:27;;;;;;;2.47;2.37;;;37.30;46.70;;;;;;4945090;29;20532;-68
2022/08/08 08:50:54;;;;;;;2.80;2.70;;;37.50;46.60;;;;;;4956743;28;20192;-68
2022/08/08 08:53:20;;;;;;;3.43;3.20;;;37.90;45.60;;;;;;4957344;28;20413;-68
2022/08/08 08:55:48;;;;;;;2.80;2.70;;;37.90;45.60;;;;;;4957376;28;20775;-68
2022/08/08 08:58:42;;;;;;;2.80;2.47;;;38.00;45.50;;;;;;4957233;29;20429;-68
2022/08/08 09:01:12;;;;;;;2.80;2.70;;;38.50;45.30;;;;;;4957325;29;20760;-68
2022/08/08 09:03:48;;;;;;;3.10;2.90;;;38.90;44.50;;;;;;4953165;28;20951;-68
2022/08/08 09:06:20;;;;;;;2.90;2.80;;;38.80;44.40;;;;;;4942057;29;20468;-68
2022/08/08 09:08:52;;;;;;;3.33;3.10;;;38.70;44.10;;;;;;4957478;29;20463;-69
2022/08/08 09:11:19;;;;;;;2.80;2.57;;;38.90;44.30;;;;;;4955926;29;20420;-68
2022/08/08 09:13:46;;;;;;;2.80;2.70;;;39.00;44.30;;;;;;4956343;28;20452;-68
2022/08/08 09:16:12;;;;;;;2.80;2.70;;;39.00;43.70;;;;;;4957064;29;20440;-68
2022/08/08 09:18:42;;;;;;;2.90;2.80;;;39.40;42.80;;;;;;4956994;28;20428;-68
2022/08/08 09:21:08;;;;;;;4.80;2.43;;;39.80;42.80;;;;;;4956972;29;20536;-68
2022/08/08 09:23:35;;;;;;;3.43;3.23;;;39.80;42.70;;;;;;4956695;29;20554;-68
2022/08/08 09:26:13;;;;;;;3.60;3.27;;;39.40;42.50;;;;;;4956650;29;20967;-67
2022/08/08 09:28:41;;;;;;;2.53;2.43;;;39.30;42.50;;;;;;4957219;28;20743;-67
2022/08/08 09:31:15;;;;;;;2.80;2.70;;;39.00;42.40;;;;;;4953075;28;20429;-67
2022/08/08 09:33:45;;;;;;;2.80;2.70;;;38.70;42.50;;;;;;4956569;28;20479;-66
2022/08/08 09:36:21;;;;;;;3.10;3.00;;;38.40;43.10;;;;;;4956186;29;20517;-67
2022/08/08 09:38:52;;;;;;;3.07;2.90;;;38.20;43.40;;;;;;4956958;29;20860;-67
2022/08/08 09:41:43;;;;;;;2.77;2.67;;;38.50;43.00;;;;;;4954857;28;20439;-67
2022/08/08 09:44:48;;;;;;;2.77;2.67;;;38.90;42.80;;;;;;4955805;28;20444;-68
2022/08/08 09:47:14;;;;;;;2.83;2.73;;;39.20;42.20;;;;;;4954689;28;20436;-69
2022/08/08 09:49:43;;;;;;;3.27;3.07;;;39.60;42.00;;;;;;4959160;28;20519;-69
2022/08/08 09:52:08;;;;;;;3.40;3.20;;;39.40;41.70;;;;;;4959858;28;20428;-69
2022/08/08 09:54:42;;;;;;;2.87;2.77;;;39.30;41.70;;;;;;4972865;28;20447;-68
2022/08/08 09:57:09;;;;;;;3.50;3.30;;;39.40;41.90;;;;;;4958255;28;20268;-69
2022/08/08 09:59:40;;;;;;;2.90;2.80;;;39.70;41.90;;;;;;4956487;29;20752;-68
2022/08/08 10:02:14;;;;;;;2.77;2.67;;;39.80;41.60;;;;;;4955462;28;20432;-68
2022/08/08 10:04:41;;;;;;;3.20;3.10;;;39.70;41.20;;;;;;4956030;29;20506;-68
2022/08/08 10:07:12;;;;;;;2.93;2.83;;;39.30;40.90;;;;;;4955362;29;20433;-68
2022/08/08 10:09:40;;;;;;;2.57;2.47;;;38.70;41.00;;;;;;4955371;29;20919;-69
2022/08/08 10:12:06;;;;;;;2.60;2.50;;;37.80;41.90;;;;;;4955543;29;20432;-68
2022/08/08 10:14:37;;;;;;;2.87;2.70;;;37.60;42.00;;;;;;4956128;28;20988;-68
2022/08/08 10:17:04;;;;;;;2.57;2.47;;;37.40;41.70;;;;;;4956221;28;20463;-69
2022/08/08 10:19:35;;;;;;;3.87;3.53;;;37.00;42.30;;;;;;4956525;28;20511;-64
2022/08/08 10:22:03;;;;;;;2.53;2.43;;;37.30;42.50;;;;;;4956350;29;20409;-67
2022/08/08 10:24:29;;;;;;;3.03;2.93;;;37.60;42.30;;;;;;4955179;28;20527;-67
2022/08/08 10:27:03;;;;;;;2.90;2.80;;;38.10;41.70;;;;;;4956706;28;20413;-68
2022/08/08 10:29:43;;;;;;;2.60;2.50;;;38.40;40.70;;;;;;4955850;28;20524;-67
2022/08/08 10:35:01;;;;;;;2.30;2.20;;;38.20;39.20;;;;;;4955264;29;20475;-66
2022/08/08 10:37:29;;;;;;;2.40;2.30;;;37.90;39.20;;;;;;4956109;28;20859;-66
2022/08/08 10:39:56;;;;;;;2.13;2.03;;;38.20;37.70;;;;;;4956043;28;20500;-67
2022/08/08 10:42:29;;;;;;;2.50;2.07;;;38.20;37.10;;;;;;4955579;29;20808;-67
2022/08/08 10:45:04;;;;;;;1.90;1.80;;;37.90;37.20;;;;;;4955291;29;20499;-66
2022/08/08 10:47:29;;;;;;;2.77;2.67;;;37.80;37.60;;;;;;4962195;28;20428;-66
2022/08/08 10:49:58;;;;;;;2.20;2.10;;;37.60;37.80;;;;;;4954584;29;20919;-67
2022/08/08 10:52:44;;;;;;;2.00;1.90;;;37.20;37.60;;;;;;4955439;29;20236;-68
2022/08/08 10:55:18;;;;;;;2.27;2.17;;;36.70;37.00;;;;;;4955007;29;20461;-67
2022/08/08 10:57:49;;;;;;;2.07;1.97;;;36.30;37.10;;;;;;4955524;29;20766;-68
2022/08/08 11:00:23;;;;;;;2.57;2.20;;;36.10;37.50;;;;;;4955031;28;20783;-68
2022/08/08 11:02:50;;;;;;;2.47;2.10;;;36.00;37.70;;;;;;4952859;28;20419;-68
2022/08/08 11:05:17;;;;;;;2.03;1.93;;;35.70;38.40;;;;;;4954158;28;20838;-68
2022/08/08 11:07:52;;;;;;;2.37;2.27;;;35.50;39.10;;;;;;4954261;29;20478;-67
2022/08/08 11:10:20;;;;;;;2.10;2.00;;;35.30;39.70;;;;;;4954368;29;20424;-67
2022/08/08 11:12:51;;;;;;;2.67;2.57;;;35.00;39.60;;;;;;4954548;29;21146;-68
2022/08/08 11:15:19;;;;;;;2.43;2.20;;;34.80;39.70;;;;;;4954003;28;20419;-68
2022/08/08 11:17:46;;;;;;;2.37;2.27;;;34.80;39.70;;;;;;4955583;28;20438;-67
2022/08/08 11:20:15;;;;;;;2.03;1.93;;;34.20;40.10;;;;;;4955469;29;20414;-67
2022/08/08 11:22:41;;;;;;;2.00;1.90;;;33.40;40.70;;;;;;4954813;29;20383;-68
2022/08/08 11:25:09;;;;;;;2.70;2.50;;;32.80;41.50;;;;;;4955119;28;20426;-66
2022/08/08 11:27:36;;;;;;;2.17;2.07;;;31.90;42.60;;;;;;4955200;28;20988;-66
2022/08/08 11:30:05;;;;;;;2.30;2.20;;;31.30;43.60;;;;;;4955173;28;20432;-67
2022/08/08 11:32:35;;;;;;;2.47;2.37;;;30.80;44.40;;;;;;4954878;29;20410;-66
2022/08/08 11:35:05;;;;;;;1.93;1.83;;;30.80;44.10;;;;;;4955090;29;20436;-67
2022/08/08 11:37:32;;;;;;;1.97;1.87;;;30.80;44.40;;;;;;4954035;29;20429;-67
2022/08/08 11:40:00;;;;;;;2.37;2.17;;;30.70;44.30;;;;;;4954954;28;20508;-67
2022/08/08 11:42:28;;;;;;;2.73;2.53;;;30.60;44.50;;;;;;4954738;28;20470;-67
2022/08/08 11:44:55;;;;;;;2.50;2.37;;;30.40;45.00;;;;;;4953542;28;20448;-67
2022/08/08 11:47:22;;;;;;;2.07;1.97;;;30.20;45.50;;;;;;4954729;29;20426;-67
2022/08/08 11:49:51;;;;;;;2.40;2.30;;;30.10;45.10;;;;;;4955048;29;20412;-67
2022/08/08 11:52:17;;;;;;;1.97;1.87;;;30.00;44.80;;;;;;4952404;29;20931;-67
2022/08/08 11:54:44;;;;;;;2.33;2.23;;;30.00;44.90;;;;;;4954458;28;20415;-67
2022/08/08 11:57:19;;;;;;;2.60;2.47;;;29.70;44.80;;;;;;4954805;28;20491;-68
2022/08/08 12:00:00;;;;;;;1.80;1.70;;;29.60;45.70;;;;;;4954760;28;20771;-67
2022/08/08 12:02:28;;;;;;;2.57;2.47;;;29.60;46.20;;;;;;4953493;29;20389;-66
2022/08/08 12:05:09;;;;;;;2.10;2.00;;;29.60;46.00;;;;;;4955011;29;20433;-66
2022/08/08 12:07:54;;;;;;;2.13;2.00;;;29.60;45.70;;;;;;4954769;29;20507;-68
2022/08/08 12:10:23;;;;;;;2.30;2.20;;;29.50;46.00;;;;;;4954692;28;20444;-66
2022/08/08 12:12:58;;;;;;;2.30;2.20;;;29.30;45.90;;;;;;4953921;29;20464;-66
2022/08/08 12:15:26;;;;;;;2.30;2.20;;;29.10;46.20;;;;;;4954827;29;20826;-67
2022/08/08 12:17:52;;;;;;;2.37;1.83;;;29.00;46.50;;;;;;4954694;28;20435;-66
2022/08/08 12:20:17;;;;;;;2.47;2.30;;;29.00;46.70;;;;;;4955005;28;20399;-68
2022/08/08 12:22:49;;;;;;;2.60;2.50;;;29.10;47.30;;;;;;4954594;28;20219;-67
2022/08/08 12:25:20;;;;;;;2.80;2.10;;;29.20;46.70;;;;;;4954267;28;20196;-68
2022/08/08 12:27:46;;;;;;;2.60;2.40;;;29.30;46.20;;;;;;4958606;28;20435;-67
2022/08/08 12:30:12;;;;;;;3.23;2.20;;;29.30;46.10;;;;;;4958231;29;20399;-67
2022/08/08 12:32:43;;;;;;;2.73;2.30;;;29.20;46.10;;;;;;4958349;28;20184;-68
2022/08/08 12:35:22;;;;;;;2.53;2.43;;;29.20;46.00;;;;;;4957026;28;20443;-67
2022/08/08 12:38:12;;;;;;;2.17;2.07;;;29.10;45.30;;;;;;4958172;28;20488;-66
2022/08/08 12:40:44;;;;;;;1.70;1.60;;;28.90;46.90;;;;;;4957692;28;20447;-67
2022/08/08 12:43:11;;;;;;;2.30;2.20;;;28.80;46.00;;;;;;4957652;28;20456;-67
2022/08/08 12:45:43;;;;;;;1.87;1.77;;;28.80;45.70;;;;;;4957974;28;20406;-65
2022/08/08 12:48:23;;;;;;;2.30;2.20;;;28.70;45.90;;;;;;4958263;28;20455;-66
2022/08/08 12:50:53;;;;;;;1.83;1.73;;;28.70;45.90;;;;;;4958061;28;20411;-67
2022/08/08 12:53:24;;;;;;;2.17;2.07;;;28.80;46.10;;;;;;4957254;28;20457;-67
2022/08/08 12:56:05;;;;;;;2.00;1.90;;;28.80;45.70;;;;;;4957920;29;20461;-67
2022/08/08 12:58:45;;;;;;;2.03;1.93;;;28.90;45.30;;;;;;4954850;29;20435;-67
2022/08/08 13:01:12;;;;;;;2.23;2.03;;;28.90;45.30;;;;;;4957520;28;20479;-67
2022/08/08 13:03:48;;;;;;;1.80;1.70;;;28.90;45.70;;;;;;4956359;28;20922;-67
2022/08/08 13:06:16;;;;;;;1.83;1.73;;;29.00;45.50;;;;;;4954158;28;20489;-66
2022/08/08 13:08:47;;;;;;;1.73;1.63;;;28.90;45.20;;;;;;4956807;29;20437;-67
2022/08/08 13:11:25;;;;;;;2.00;1.90;;;28.90;45.60;;;;;;4957591;28;20416;-65
2022/08/08 13:13:59;;;;;;;2.57;2.30;;;28.90;45.60;;;;;;4956626;28;20420;-64
2022/08/08 13:16:25;;;;;;;2.20;2.10;;;28.90;46.00;;;;;;4947414;29;20478;-65
2022/08/08 13:18:52;;;;;;;2.20;2.10;;;29.00;46.00;;;;;;4957601;29;20579;-66
2022/08/08 13:21:18;;;;;;;2.00;1.90;;;29.10;45.90;;;;;;4956593;28;20922;-66
2022/08/08 13:23:43;;;;;;;2.00;1.80;;;29.10;45.60;;;;;;4956869;28;20442;-64
2022/08/08 13:26:09;;;;;;;2.20;2.10;;;29.00;45.70;;;;;;4957397;28;20637;-68
2022/08/08 13:28:35;;;;;;;2.50;2.40;;;28.90;45.90;;;;;;4956970;28;20175;-66
2022/08/08 13:31:02;;;;;;;2.53;2.33;;;29.00;45.70;;;;;;4956886;28;20434;-64
2022/08/08 13:33:29;;;;;;;2.50;2.30;;;29.00;45.90;;;;;;4956635;29;20292;-67
2022/08/08 13:35:55;;;;;;;1.70;1.63;;;29.00;45.80;;;;;;4956821;29;20474;-64
2022/08/08 13:38:21;;;;;;;1.80;1.70;;;29.00;45.00;;;;;;4956839;28;20414;-69
2022/08/08 13:40:47;;;;;;;2.33;2.20;;;29.00;45.50;;;;;;4957235;29;20438;-64
2022/08/08 13:43:14;;;;;;;2.10;2.00;;;29.00;45.10;;;;;;4956754;29;20185;-70
2022/08/08 13:45:40;;;;;;;1.90;1.80;;;29.00;45.50;;;;;;4956702;29;20426;-66
2022/08/08 13:48:12;;;;;;;2.13;2.03;;;29.10;45.00;;;;;;4957088;29;20763;-70
2022/08/08 13:50:45;;;;;;;1.70;1.60;;;29.00;45.90;;;;;;4957013;29;20288;-69
2022/08/08 13:53:11;;;;;;;2.30;2.20;;;29.10;45.30;;;;;;4956761;29;20759;-66
2022/08/08 13:55:37;;;;;;;2.00;1.90;;;29.00;46.30;;;;;;4956962;28;20449;-65
2022/08/08 13:58:03;;;;;;;3.47;1.90;;;29.00;45.70;;;;;;4956391;29;20220;-65
2022/08/08 14:00:40;;;;;;;1.70;1.60;;;29.10;45.20;;;;;;4957155;29;20895;-65
2022/08/08 14:03:06;;;;;;;1.80;1.70;;;29.20;44.00;;;;;;4956439;29;20400;-69
2022/08/08 14:05:32;;;;;;;2.00;1.90;;;29.10;44.30;;;;;;4956667;28;20485;-68
2022/08/08 14:07:59;;;;;;;1.90;1.80;;;29.10;44.70;;;;;;4956749;29;20175;-70
2022/08/08 14:10:25;;;;;;;1.83;1.80;;;29.10;44.20;;;;;;4956390;29;20855;-67
2022/08/08 14:12:52;;;;;;;3.10;1.87;;;29.00;44.10;;;;;;4956266;29;20416;-65
2022/08/08 14:15:32;;;;;;;2.10;2.00;;;29.00;44.20;;;;;;4956481;29;20531;-68
2022/08/08 14:18:03;;;;;;;3.73;2.03;;;28.90;44.10;;;;;;4956549;28;20463;-66
2022/08/08 14:20:38;;;;;;;2.33;2.23;;;28.90;44.10;;;;;;4956802;29;20405;-64
2022/08/08 14:23:07;;;;;;;1.93;1.83;;;28.80;44.20;;;;;;4955929;29;20486;-69
2022/08/08 14:26:06;;;;;;;1.90;1.80;;;28.80;44.50;;;;;;4954859;29;20890;-66
2022/08/08 14:28:32;;;;;;;2.00;1.90;;;28.80;44.60;;;;;;4924115;29;20442;-68
2022/08/08 14:31:09;;;;;;;2.40;2.20;;;28.80;44.40;;;;;;4956389;29;20418;-65
2022/08/08 14:33:34;;;;;;;2.13;2.03;;;28.80;44.60;;;;;;4955958;29;20203;-65
2022/08/08 14:36:05;;;;;;;1.90;1.80;;;28.80;44.50;;;;;;4956170;29;20410;-64
2022/08/08 14:38:32;;;;;;;1.67;1.57;;;28.80;44.00;;;;;;4956230;29;20544;-70
2022/08/08 14:41:09;;;;;;;1.60;1.60;;;28.80;44.00;;;;;;4955915;29;20420;-64
2022/08/08 14:43:47;;;;;;;1.80;1.70;;;28.80;44.00;;;;;;4954308;29;20405;-65
2022/08/08 14:46:18;;;;;;;1.50;1.50;;;28.80;44.30;;;;;;4956220;29;20558;-64
2022/08/08 14:48:45;;;;;;;4.00;2.00;;;28.80;44.00;;;;;;4955715;28;20534;-68
2022/08/08 14:51:12;;;;;;;2.13;2.03;;;28.80;44.20;;;;;;4956007;29;20407;-65
2022/08/08 14:53:39;;;;;;;1.77;1.67;;;28.90;44.00;;;;;;4955351;29;20455;-70
2022/08/08 14:56:05;;;;;;;1.60;1.57;;;28.90;44.00;;;;;;4955975;29;20439;-69
2022/08/08 14:58:31;;;;;;;2.00;1.90;;;28.90;43.70;;;;;;4955945;29;20408;-69
2022/08/08 15:00:57;;;;;;;1.73;1.63;;;28.90;43.90;;;;;;4955840;29;20803;-66
2022/08/08 15:03:22;;;;;;;2.00;1.90;;;28.90;43.70;;;;;;4955334;29;20266;-68
2022/08/08 15:05:48;;;;;;;1.93;1.83;;;28.80;44.00;;;;;;4955353;28;20246;-63
2022/08/08 15:08:16;;;;;;;1.90;1.80;;;28.80;44.10;;;;;;4955509;29;20195;-69
2022/08/08 15:10:45;;;;;;;3.30;1.73;;;28.80;44.20;;;;;;4955798;29;20215;-66
2022/08/08 15:13:14;;;;;;;1.53;1.53;;;28.80;44.00;;;;;;4955310;29;20449;-68
2022/08/08 15:15:40;;;;;;;1.80;1.70;;;28.80;43.60;;;;;;4955782;29;20823;-65
2022/08/08 15:18:07;;;;;;;1.80;1.80;;;28.80;43.70;;;;;;4955533;29;20955;-67
2022/08/08 15:20:34;;;;;;;2.47;2.27;;;28.80;43.40;;;;;;4955664;29;20411;-62
2022/08/08 15:22:59;;;;;;;2.00;1.90;;;28.80;43.50;;;;;;4955037;29;20791;-69
2022/08/08 15:25:25;;;;;;;3.03;2.37;;;28.80;43.50;;;;;;4955557;28;20414;-64
2022/08/08 15:27:52;;;;;;;2.00;1.90;;;28.70;43.60;;;;;;4955387;29;20575;-63
2022/08/08 15:30:17;;;;;;;1.93;1.87;;;28.70;43.80;;;;;;4955745;29;20413;-67
2022/08/08 15:32:43;;;;;;;3.23;1.57;;;28.80;43.80;;;;;;4955334;29;20413;-65
2022/08/08 15:35:09;;;;;;;5.53;1.80;;;28.80;43.90;;;;;;4955355;29;20338;-63
2022/08/08 15:37:35;;;;;;;1.80;1.70;;;28.80;43.30;;;;;;4955702;29;20858;-62
2022/08/08 15:40:01;;;;;;;2.00;1.90;;;28.80;43.40;;;;;;4955340;28;20440;-68
2022/08/08 15:42:26;;;;;;;1.90;1.80;;;28.80;43.50;;;;;;4955064;29;20174;-66
2022/08/08 15:44:52;;;;;;;1.80;1.70;;;28.80;43.40;;;;;;4955195;29;20201;-62
2022/08/08 15:47:19;;;;;;;1.63;1.30;;;28.80;43.10;;;;;;4954208;29;20181;-64
2022/08/08 15:49:45;;;;;;;1.67;1.57;;;28.80;43.30;;;;;;4955194;29;20306;-68
2022/08/08 15:52:13;;;;;;;1.60;1.53;;;28.80;43.50;;;;;;4954416;29;20998;-66
2022/08/08 15:54:42;;;;;;;2.07;1.97;;;28.80;43.30;;;;;;4955027;29;20952;-68
2022/08/08 15:57:10;;;;;;;1.93;1.70;;;28.70;43.20;;;;;;4955034;29;20808;-63
2022/08/08 15:59:37;;;;;;;2.07;1.80;;;28.70;43.40;;;;;;4955421;28;20409;-69
2022/08/08 16:02:02;;;;;;;1.70;1.60;;;28.60;43.60;;;;;;4957600;29;20914;-69
2022/08/08 16:04:28;;;;;;;1.63;1.57;;;28.60;43.60;;;;;;4958669;29;20431;-67
2022/08/08 16:06:54;;;;;;;3.43;1.60;;;28.60;43.40;;;;;;4958497;29;20554;-68
2022/08/08 16:09:20;;;;;;;1.30;1.30;;;28.60;43.40;;;;;;4959047;29;20268;-67
2022/08/08 16:11:47;;;;;;;1.50;1.40;;;28.50;43.60;;;;;;4958881;29;20280;-68
2022/08/08 16:14:12;;;;;;;1.53;1.53;;;28.50;43.40;;;;;;4958389;29;20432;-64
2022/08/08 16:16:39;;;;;;;1.50;1.40;;;28.50;43.30;;;;;;4958145;29;20485;-64
2022/08/08 16:19:05;;;;;;;1.77;1.67;;;28.40;43.50;;;;;;4958612;29;20260;-65
2022/08/08 16:21:32;;;;;;;2.10;1.60;;;28.40;43.20;;;;;;4958824;29;20892;-67
2022/08/08 16:24:01;;;;;;;1.60;1.53;;;28.40;42.90;;;;;;4958343;29;20524;-70
2022/08/08 16:26:29;;;;;;;1.70;1.60;;;28.40;43.20;;;;;;4958573;29;20412;-68
2022/08/08 16:28:54;;;;;;;1.60;1.50;;;28.40;43.20;;;;;;4958638;29;20406;-68
2022/08/08 16:31:20;;;;;;;1.60;1.50;;;28.40;43.20;;;;;;4958192;29;20473;-70
2022/08/08 16:33:47;;;;;;;1.80;1.70;;;28.40;43.20;;;;;;4958010;29;20256;-64
2022/08/08 16:36:13;;;;;;;1.63;1.53;;;28.40;43.00;;;;;;4958293;29;20278;-71
2022/08/08 16:38:38;;;;;;;1.33;1.33;;;28.40;43.00;;;;;;4958509;29;20541;-65
2022/08/08 16:41:04;;;;;;;1.50;1.40;;;28.30;42.80;;;;;;4958619;29;20409;-68
2022/08/08 16:43:30;;;;;;;1.60;1.50;;;28.30;42.80;;;;;;4957701;29;20208;-64
2022/08/08 16:45:55;;;;;;;1.40;1.40;;;28.20;42.80;;;;;;4958158;29;20201;-67
2022/08/08 16:48:21;;;;;;;2.03;1.93;;;28.20;43.00;;;;;;4958589;29;20268;-66
2022/08/08 16:50:47;;;;;;;1.67;1.50;;;28.20;42.90;;;;;;4958258;29;20256;-63
2022/08/08 16:53:12;;;;;;;1.40;1.30;;;28.20;42.90;;;;;;4957596;29;20579;-70
2022/08/08 16:55:39;;;;;;;1.43;1.43;;;28.20;42.60;;;;;;4957840;29;20265;-64
2022/08/08 16:58:04;;;;;;;1.67;1.60;;;28.10;42.50;;;;;;4957872;29;20234;-67
2022/08/08 17:00:30;;;;;;;1.90;1.80;;;28.10;42.80;;;;;;4958105;29;20408;-65
2022/08/08 17:02:56;;;;;;;1.90;1.80;;;28.10;42.70;;;;;;4957455;29;20252;-68
2022/08/08 17:05:21;;;;;;;1.50;1.50;;;28.10;42.90;;;;;;4957566;29;20675;-68
2022/08/08 17:07:47;;;;;;;1.90;1.80;;;28.10;42.40;;;;;;4958120;29;20185;-65
2022/08/08 17:10:12;;;;;;;1.87;1.77;;;28.10;42.60;;;;;;4957564;29;20721;-68